Time;durP1;ratioP1;P1;durP2;ratioP2;P2;SDS_P1;SDS_P2;PMS_P1;PMS_P2;Temp;Humidity;BMP_temperature;BMP_pressure;BME280_temperature;BME280_humidity;BME280_pressure;Samples;Min_cycle;Max_cycle;Signal;HPM_P1;HPM_P2
2022/12/08 00:01:15;;;;;;;;;;;;;;;4.29;100.00;100173.41;5076329;28;19932;-81
2022/12/08 00:03:40;;;;;;;;;;;;;;;4.43;100.00;100173.06;5076212;28;20280;-81
2022/12/08 00:11:34;;;;;;;;;;;;;;;4.41;100.00;100169.72;5076039;28;19982;-85
2022/12/08 00:14:00;;;;;;;;;;;;;;;4.21;100.00;100162.72;5076153;28;19983;-84
2022/12/08 00:16:25;;;;;;;;;;;;;;;4.21;100.00;100157.50;5076019;28;19921;-84
2022/12/08 00:18:50;;;;;;;;;;;;;;;4.19;100.00;100154.19;5076125;28;19947;-81
2022/12/08 00:21:16;;;;;;;;;;;;;;;4.28;100.00;100152.56;5076021;28;19924;-85
2022/12/08 00:23:41;;;;;;;;;;;;;;;4.19;100.00;100141.06;5076287;28;19921;-83
2022/12/08 00:26:07;;;;;;;;;;;;;;;4.21;100.00;100146.19;5076025;28;19921;-81
2022/12/08 00:28:33;;;;;;;;;;;;;;;4.26;100.00;100147.44;5076253;28;20380;-82
2022/12/08 00:30:59;;;;;;;;;;;;;;;4.41;100.00;100151.38;5075800;28;19924;-83
2022/12/08 00:33:26;;;;;;;;;;;;;;;4.50;100.00;100144.53;5076009;28;19927;-84
2022/12/08 00:35:51;;;;;;;;;;;;;;;4.32;100.00;100143.47;5075772;28;19924;-84
2022/12/08 00:38:16;;;;;;;;;;;;;;;4.33;100.00;100142.50;5076090;28;19991;-82
2022/12/08 00:40:46;;;;;;;;;;;;;;;4.41;100.00;100137.44;5076701;28;20284;-81
2022/12/08 00:43:11;;;;;;;;;;;;;;;4.56;100.00;100136.09;5076063;28;20047;-82
2022/12/08 00:45:37;;;;;;;;;;;;;;;4.55;100.00;100137.91;5076820;28;20011;-84
2022/12/08 00:48:02;;;;;;;;;;;;;;;4.57;100.00;100135.97;5076821;28;19921;-83
2022/12/08 00:50:27;;;;;;;;;;;;;;;4.61;100.00;100137.34;5076313;28;19936;-82
2022/12/08 00:52:53;;;;;;;;;;;;;;;4.61;100.00;100137.34;5076577;28;19927;-84
2022/12/08 00:55:18;;;;;;;;;;;;;;;4.55;100.00;100140.53;5076832;28;19917;-83
2022/12/08 00:57:43;;;;;;;;;;;;;;;4.64;100.00;100139.72;5076047;28;19946;-84
2022/12/08 01:00:10;;;;;;;;;;;;;;;4.61;100.00;100145.22;5075308;28;20025;-83
2022/12/08 01:02:36;;;;;;;;;;;;;;;4.52;100.00;100139.94;5076010;28;19959;-83
2022/12/08 01:05:01;;;;;;;;;;;;;;;4.44;100.00;100148.47;5075584;28;19920;-82
2022/12/08 01:07:27;;;;;;;;;;;;;;;4.59;100.00;100156.84;5075982;28;19927;-85
2022/12/08 01:09:52;;;;;;;;;;;;;;;4.56;100.00;100157.09;5076147;28;19920;-86
2022/12/08 01:12:17;;;;;;;;;;;;;;;4.66;100.00;100161.44;5076513;28;20282;-85
2022/12/08 01:14:43;;;;;;;;;;;;;;;4.50;100.00;100157.63;5076236;28;19969;-84
2022/12/08 01:17:08;;;;;;;;;;;;;;;4.53;100.00;100160.00;5076325;28;19921;-86
2022/12/08 01:19:34;;;;;;;;;;;;;;;4.57;100.00;100161.41;5076158;28;19924;-81
2022/12/08 01:21:59;;;;;;;;;;;;;;;4.42;100.00;100160.06;5076233;28;19920;-85
2022/12/08 01:24:24;;;;;;;;;;;;;;;4.40;100.00;100165.47;5076486;28;19920;-81
2022/12/08 01:26:50;;;;;;;;;;;;;;;4.49;100.00;100161.22;5075869;28;20280;-85
2022/12/08 01:29:16;;;;;;;;;;;;;;;4.39;100.00;100165.59;5075811;28;19924;-82
2022/12/08 01:31:41;;;;;;;;;;;;;;;4.45;100.00;100165.91;5075480;28;19932;-86
2022/12/08 01:34:07;;;;;;;;;;;;;;;4.40;100.00;100162.84;5075885;28;19966;-85
2022/12/08 01:36:36;;;;;;;;;;;;;;;4.45;100.00;100160.66;5076025;28;20065;-85
2022/12/08 01:39:02;;;;;;;;;;;;;;;4.52;100.00;100167.03;5068022;28;20004;-85
2022/12/08 01:41:30;;;;;;;;;;;;;;;4.42;100.00;100168.78;5056082;28;19921;-87
2022/12/08 01:43:55;;;;;;;;;;;;;;;4.54;100.00;100161.66;5055700;28;19987;-82
2022/12/08 01:46:21;;;;;;;;;;;;;;;4.57;100.00;100159.56;5055511;28;19928;-85
2022/12/08 01:48:47;;;;;;;;;;;;;;;4.69;100.00;100162.94;5055652;28;19929;-86
2022/12/08 01:51:13;;;;;;;;;;;;;;;4.64;100.00;100154.63;5055454;28;19920;-86
2022/12/08 01:53:38;;;;;;;;;;;;;;;4.77;100.00;100160.50;5055793;28;19931;-80
2022/12/08 01:56:24;;;;;;;;;;;;;;;4.55;100.00;100152.81;5055570;28;19924;-84
2022/12/08 01:58:51;;;;;;;;;;;;;;;4.45;100.00;100155.41;5055198;28;20061;-82
2022/12/08 02:01:16;;;;;;;;;;;;;;;4.43;100.00;100157.34;5055771;28;20309;-85
2022/12/08 02:03:46;;;;;;;;;;;;;;;4.50;100.00;100153.22;5055496;28;19951;-82
2022/12/08 02:06:11;;;;;;;;;;;;;;;4.55;100.00;100155.44;5055684;28;19988;-83
2022/12/08 02:08:37;;;;;;;;;;;;;;;4.49;100.00;100151.56;5055292;28;20381;-82
2022/12/08 02:11:04;;;;;;;;;;;;;;;4.43;100.00;100152.09;5054735;28;19928;-86
2022/12/08 02:13:31;;;;;;;;;;;;;;;4.42;100.00;100139.09;5055010;28;19916;-83
2022/12/08 02:16:15;;;;;;;;;;;;;;;4.59;100.00;100141.09;5053961;28;19920;-84
2022/12/08 02:18:59;;;;;;;;;;;;;;;4.49;100.00;100146.31;5055196;28;19921;-83
2022/12/08 02:21:43;;;;;;;;;;;;;;;4.47;100.00;100129.88;5055111;28;19937;-81
2022/12/08 02:24:08;;;;;;;;;;;;;;;4.32;100.00;100133.81;5054815;28;19928;-83
2022/12/08 02:26:37;;;;;;;;;;;;;;;4.33;100.00;100124.16;5054869;28;19920;-85
2022/12/08 02:29:22;;;;;;;;;;;;;;;4.34;100.00;100126.63;5054695;28;20389;-84
2022/12/08 02:31:54;;;;;;;;;;;;;;;4.41;100.00;100117.25;5054271;28;19925;-84
2022/12/08 02:34:25;;;;;;;;;;;;;;;4.63;100.00;100119.69;5054721;28;20007;-80
2022/12/08 02:37:02;;;;;;;;;;;;;;;4.59;100.00;100123.56;5053492;28;20353;-83
2022/12/08 02:39:39;;;;;;;;;;;;;;;4.42;100.00;100111.06;5054748;28;19921;-84
2022/12/08 02:42:11;;;;;;;;;;;;;;;4.51;100.00;100115.50;5054625;28;19960;-81
2022/12/08 02:44:39;;;;;;;;;;;;;;;4.42;100.00;100113.69;5054689;28;19920;-84
2022/12/08 02:47:12;;;;;;;;;;;;;;;4.23;100.00;100111.00;5053133;28;19999;-82
2022/12/08 02:49:38;;;;;;;;;;;;;;;4.16;100.00;100102.00;5054673;28;19925;-82
2022/12/08 02:52:12;;;;;;;;;;;;;;;4.11;100.00;100112.84;5054623;28;19947;-83
2022/12/08 02:54:39;;;;;;;;;;;;;;;4.18;100.00;100108.75;5054368;28;19972;-83
2022/12/08 02:57:14;;;;;;;;;;;;;;;4.14;100.00;100098.69;5054307;28;20262;-84
2022/12/08 02:59:58;;;;;;;;;;;;;;;4.06;100.00;100095.88;5054096;28;19927;-85
2022/12/08 03:02:29;;;;;;;;;;;;;;;3.98;100.00;100100.91;5054340;28;19924;-82
2022/12/08 03:05:05;;;;;;;;;;;;;;;3.98;100.00;100093.88;5054512;28;20331;-81
2022/12/08 03:07:44;;;;;;;;;;;;;;;3.98;100.00;100098.31;5054111;28;20286;-84
2022/12/08 03:10:15;;;;;;;;;;;;;;;3.95;100.00;100088.06;5054417;28;19920;-85
2022/12/08 03:12:47;;;;;;;;;;;;;;;3.98;100.00;100088.66;5054246;28;19953;-86
2022/12/08 03:15:14;;;;;;;;;;;;;;;4.16;100.00;100086.25;5054045;28;20293;-83
2022/12/08 03:17:42;;;;;;;;;;;;;;;4.31;100.00;100090.16;5054889;28;20015;-83
2022/12/08 03:20:10;;;;;;;;;;;;;;;4.31;100.00;100074.44;5074271;28;19920;-84
2022/12/08 03:22:37;;;;;;;;;;;;;;;4.24;100.00;100078.56;5072921;28;19920;-85
2022/12/08 03:25:03;;;;;;;;;;;;;;;4.25;100.00;100074.13;5078278;28;19920;-83
2022/12/08 03:27:30;;;;;;;;;;;;;;;4.23;100.00;100074.28;5078405;28;19946;-83
2022/12/08 03:29:56;;;;;;;;;;;;;;;4.14;100.00;100075.06;5078128;28;20015;-83
2022/12/08 03:32:21;;;;;;;;;;;;;;;4.09;100.00;100074.63;5078200;28;19931;-84
2022/12/08 03:34:49;;;;;;;;;;;;;;;4.02;100.00;100081.34;5076738;28;19916;-86
2022/12/08 03:37:15;;;;;;;;;;;;;;;4.03;100.00;100080.41;5078218;28;19947;-84
2022/12/08 03:39:40;;;;;;;;;;;;;;;3.98;100.00;100077.31;5077941;28;19920;-87
2022/12/08 03:42:05;;;;;;;;;;;;;;;4.02;100.00;100078.72;5077953;28;20374;-84
2022/12/08 03:44:31;;;;;;;;;;;;;;;4.02;100.00;100078.72;5078427;28;19984;-82
2022/12/08 03:46:56;;;;;;;;;;;;;;;4.23;100.00;100076.06;5077890;28;19920;-84
2022/12/08 03:49:21;;;;;;;;;;;;;;;4.46;100.00;100073.09;5077706;28;19925;-83
2022/12/08 03:51:47;;;;;;;;;;;;;;;4.35;100.00;100069.75;5077235;28;19940;-80
2022/12/08 03:54:12;;;;;;;;;;;;;;;4.26;100.00;100076.63;5078310;28;19921;-84
2022/12/08 03:56:38;;;;;;;;;;;;;;;4.32;100.00;100070.00;5076504;28;19920;-85
2022/12/08 03:59:04;;;;;;;;;;;;;;;4.55;100.00;100064.41;5076683;28;19925;-83
2022/12/08 04:01:30;;;;;;;;;;;;;;;4.74;100.00;100070.69;5078043;28;19925;-83
2022/12/08 04:03:55;;;;;;;;;;;;;;;4.67;100.00;100063.31;5077635;28;19923;-82
2022/12/08 04:06:20;;;;;;;;;;;;;;;4.47;100.00;100066.91;5077949;28;20034;-81
2022/12/08 04:08:46;;;;;;;;;;;;;;;4.41;100.00;100056.91;5077455;28;19920;-83
2022/12/08 04:11:11;;;;;;;;;;;;;;;4.45;100.00;100057.47;5077408;28;20011;-84
2022/12/08 04:13:37;;;;;;;;;;;;;;;4.50;100.00;100063.19;5078166;28;19946;-82
2022/12/08 04:16:03;;;;;;;;;;;;;;;4.49;100.00;100054.47;5077486;28;20342;-82
2022/12/08 04:18:29;;;;;;;;;;;;;;;4.37;100.00;100052.09;5077169;28;20003;-81
2022/12/08 04:20:54;;;;;;;;;;;;;;;4.45;100.00;100049.63;5077184;28;19989;-81
2022/12/08 04:23:20;;;;;;;;;;;;;;;4.52;100.00;100051.56;5077425;28;20293;-86
2022/12/08 04:25:45;;;;;;;;;;;;;;;4.55;100.00;100043.44;5077690;28;20017;-83
2022/12/08 04:28:11;;;;;;;;;;;;;;;4.57;100.00;100049.34;5076403;28;19920;-81
2022/12/08 04:30:37;;;;;;;;;;;;;;;4.58;100.00;100056.28;5075711;28;20432;-85
2022/12/08 04:33:02;;;;;;;;;;;;;;;4.56;100.00;100047.72;5075842;28;20012;-83
2022/12/08 04:35:27;;;;;;;;;;;;;;;4.53;100.00;100053.25;5075428;28;20385;-85
2022/12/08 04:37:53;;;;;;;;;;;;;;;4.58;100.00;100058.06;5075346;28;19964;-82
2022/12/08 04:40:18;;;;;;;;;;;;;;;4.66;100.00;100073.97;5073861;28;19962;-81
2022/12/08 04:42:44;;;;;;;;;;;;;;;4.51;100.00;100063.03;5074018;28;20015;-82
2022/12/08 04:45:09;;;;;;;;;;;;;;;4.52;100.00;100056.81;5075305;28;19931;-83
2022/12/08 04:47:35;;;;;;;;;;;;;;;4.44;100.00;100054.03;5075108;28;20011;-82
2022/12/08 04:50:00;;;;;;;;;;;;;;;4.47;100.00;100059.03;5075560;28;19917;-82
2022/12/08 04:52:26;;;;;;;;;;;;;;;4.47;100.00;100064.28;5075225;28;19966;-84
2022/12/08 04:54:51;;;;;;;;;;;;;;;4.29;100.00;100058.00;5075232;28;19981;-84
2022/12/08 04:57:16;;;;;;;;;;;;;;;4.25;100.00;100048.72;5075168;28;20007;-84
2022/12/08 04:59:42;;;;;;;;;;;;;;;4.22;100.00;100051.63;5074963;28;19928;-85
2022/12/08 05:02:07;;;;;;;;;;;;;;;4.16;100.00;100049.53;5073477;28;19921;-81
2022/12/08 05:04:32;;;;;;;;;;;;;;;4.24;100.00;100057.59;5074713;28;19920;-83
2022/12/08 05:06:58;;;;;;;;;;;;;;;4.20;100.00;100045.69;5074721;28;20400;-80
2022/12/08 05:09:23;;;;;;;;;;;;;;;4.14;100.00;100056.72;5074859;28;19955;-84
2022/12/08 05:11:49;;;;;;;;;;;;;;;4.09;100.00;100053.66;5074672;28;19927;-84
2022/12/08 05:14:15;;;;;;;;;;;;;;;4.08;100.00;100047.56;5074595;28;20380;-83
2022/12/08 05:16:40;;;;;;;;;;;;;;;4.12;100.00;100053.38;5074850;28;19920;-83
2022/12/08 05:19:06;;;;;;;;;;;;;;;4.12;100.00;100053.38;5074623;28;19981;-82
2022/12/08 05:21:32;;;;;;;;;;;;;;;4.05;100.00;100050.47;5056945;28;20340;-83
2022/12/08 05:23:57;;;;;;;;;;;;;;;3.95;100.00;100054.00;5074585;28;19921;-82
2022/12/08 05:26:22;;;;;;;;;;;;;;;3.88;100.00;100055.50;5074765;28;19920;-80
2022/12/08 05:28:48;;;;;;;;;;;;;;;3.87;100.00;100043.34;5074316;28;20289;-78
2022/12/08 05:31:14;;;;;;;;;;;;;;;3.87;100.00;100048.59;5074223;28;19963;-82
2022/12/08 05:33:40;;;;;;;;;;;;;;;4.02;100.00;100047.28;5074554;28;19928;-81
2022/12/08 05:36:05;;;;;;;;;;;;;;;3.93;100.00;100032.34;5074266;28;19916;-83
2022/12/08 05:38:31;;;;;;;;;;;;;;;3.97;100.00;100036.38;5074813;28;19927;-83
2022/12/08 05:40:59;;;;;;;;;;;;;;;3.96;100.00;100043.41;5076727;28;20435;-82
2022/12/08 05:43:25;;;;;;;;;;;;;;;3.97;100.00;100038.97;5074391;28;20007;-82
2022/12/08 05:45:51;;;;;;;;;;;;;;;4.11;100.00;100041.22;5073525;28;19931;-82
2022/12/08 05:48:16;;;;;;;;;;;;;;;4.13;100.00;100040.16;5073921;28;20280;-83
2022/12/08 05:50:45;;;;;;;;;;;;;;;4.15;100.00;100048.69;5074039;28;19924;-83
2022/12/08 05:53:11;;;;;;;;;;;;;;;4.30;100.00;100050.97;5072883;28;19934;-84
2022/12/08 05:55:36;;;;;;;;;;;;;;;4.20;100.00;100045.69;5074050;28;19916;-81
2022/12/08 05:58:01;;;;;;;;;;;;;;;4.02;100.00;100047.28;5072846;28;19966;-84
2022/12/08 06:00:27;;;;;;;;;;;;;;;4.13;100.00;100052.44;5074089;28;19921;-84
2022/12/08 06:02:52;;;;;;;;;;;;;;;4.09;100.00;100058.88;5073718;28;20388;-80
2022/12/08 06:05:18;;;;;;;;;;;;;;;4.07;100.00;100060.84;5073920;28;19935;-83
2022/12/08 06:07:44;;;;;;;;;;;;;;;4.06;100.00;100064.41;5073933;28;19924;-83
2022/12/08 06:10:09;;;;;;;;;;;;;;;4.05;100.00;100060.13;5073893;28;19920;-82
2022/12/08 06:12:35;;;;;;;;;;;;;;;4.10;100.00;100055.31;5073785;28;19908;-83
2022/12/08 06:15:00;;;;;;;;;;;;;;;3.99;100.00;100050.16;5073613;28;19920;-83
2022/12/08 06:17:25;;;;;;;;;;;;;;;3.99;100.00;100042.28;5073769;28;19924;-81
2022/12/08 06:19:51;;;;;;;;;;;;;;;3.98;100.00;100056.34;5075234;28;19931;-84
2022/12/08 06:22:16;;;;;;;;;;;;;;;4.01;100.00;100051.69;5072243;28;19917;-84
2022/12/08 06:24:41;;;;;;;;;;;;;;;4.08;100.00;100052.81;5073467;28;19952;-83
2022/12/08 06:27:07;;;;;;;;;;;;;;;3.99;100.00;100037.06;5073304;28;20360;-83
2022/12/08 06:29:32;;;;;;;;;;;;;;;4.04;100.00;100051.41;5073348;28;20396;-81
2022/12/08 06:31:57;;;;;;;;;;;;;;;4.18;100.00;100051.06;5073197;28;20016;-81
2022/12/08 06:34:23;;;;;;;;;;;;;;;4.05;100.00;100047.00;5073520;28;19927;-82
2022/12/08 06:36:48;;;;;;;;;;;;;;;4.03;100.00;100049.78;5073371;28;19916;-84
2022/12/08 06:39:13;;;;;;;;;;;;;;;4.13;100.00;100053.25;5072115;28;19932;-84
2022/12/08 06:42:42;;;;;;;;;;;;;;;4.24;100.00;100062.84;5073181;28;19928;-83
2022/12/08 06:44:24;;;;;;;;;;;;;;;4.17;100.00;100053.84;5073236;28;19920;-83
2022/12/08 06:46:49;;;;;;;;;;;;;;;4.07;100.00;100058.22;5076040;28;19924;-82
2022/12/08 06:49:15;;;;;;;;;;;;;;;4.20;100.00;100066.69;5074918;28;19925;-83
2022/12/08 06:51:40;;;;;;;;;;;;;;;4.20;100.00;100066.69;5075008;28;19920;-82
2022/12/08 06:54:05;;;;;;;;;;;;;;;4.23;100.00;100066.41;5074945;28;19927;-82
2022/12/08 06:56:31;;;;;;;;;;;;;;;4.14;100.00;100061.97;5056788;28;19920;-81
2022/12/08 06:58:56;;;;;;;;;;;;;;;4.13;100.00;100068.16;5073372;28;19917;-81
2022/12/08 07:01:22;;;;;;;;;;;;;;;4.05;100.00;100060.13;5074130;28;19997;-84
2022/12/08 07:03:47;;;;;;;;;;;;;;;4.08;100.00;100063.31;5074024;28;19920;-82
2022/12/08 07:06:14;;;;;;;;;;;;;;;4.23;100.00;100065.56;5074029;28;19924;-83
2022/12/08 07:08:40;;;;;;;;;;;;;;;4.10;100.00;100060.56;5074375;28;19927;-85
2022/12/08 07:11:07;;;;;;;;;;;;;;;4.02;100.00;100068.25;5074157;28;19920;-88
2022/12/08 07:13:32;;;;;;;;;;;;;;;3.95;100.00;100059.25;5065924;28;19928;-82
2022/12/08 07:15:57;;;;;;;;;;;;;;;4.07;100.00;100060.84;5069886;28;19920;-85
2022/12/08 07:18:23;;;;;;;;;;;;;;;4.14;100.00;100056.72;5070209;28;20001;-82
2022/12/08 07:20:48;;;;;;;;;;;;;;;4.26;100.00;100060.91;5070863;28;19931;-81
2022/12/08 07:23:13;;;;;;;;;;;;;;;4.27;100.00;100059.94;5066050;28;19954;-84
2022/12/08 07:25:39;;;;;;;;;;;;;;;4.28;100.00;100064.19;5071515;28;19924;-85
2022/12/08 07:28:08;;;;;;;;;;;;;;;4.27;100.00;100062.56;5073626;28;20011;-84
2022/12/08 07:30:34;;;;;;;;;;;;;;;4.16;100.00;100060.03;5075657;28;19931;-82
2022/12/08 07:33:00;;;;;;;;;;;;;;;4.07;100.00;100058.22;5086301;28;19920;-78
2022/12/08 07:35:26;;;;;;;;;;;;;;;4.06;100.00;100051.28;5086998;28;20352;-81
2022/12/08 07:37:51;;;;;;;;;;;;;;;4.01;100.00;100058.75;5076520;28;19921;-86
2022/12/08 07:40:17;;;;;;;;;;;;;;;4.07;100.00;100056.41;5075439;28;19973;-83
2022/12/08 07:42:42;;;;;;;;;;;;;;;4.05;100.00;100052.25;5080792;28;19924;-83
2022/12/08 07:45:08;;;;;;;;;;;;;;;4.03;100.00;100064.66;5080609;28;20054;-84
2022/12/08 07:47:33;;;;;;;;;;;;;;;3.97;100.00;100049.47;5085917;28;19963;-85
2022/12/08 07:49:58;;;;;;;;;;;;;;;4.10;100.00;100060.56;5077220;28;20289;-83
2022/12/08 07:52:24;;;;;;;;;;;;;;;4.18;100.00;100046.78;5074955;28;19921;-82
2022/12/08 07:54:49;;;;;;;;;;;;;;;4.06;100.00;100054.75;5077700;28;19946;-85
2022/12/08 07:57:17;;;;;;;;;;;;;;;3.94;100.00;100054.97;5075776;28;19924;-84
2022/12/08 07:59:43;;;;;;;;;;;;;;;4.03;100.00;100048.94;5073941;28;20345;-84
2022/12/08 08:02:20;;;;;;;;;;;;;;;4.10;100.00;100053.53;5070360;28;19924;-86
2022/12/08 08:04:48;;;;;;;;;;;;;;;4.08;100.00;100050.19;5062154;28;19921;-85
2022/12/08 08:07:14;;;;;;;;;;;;;;;4.21;100.00;100057.81;5061665;28;19924;-86
2022/12/08 08:09:39;;;;;;;;;;;;;;;4.19;100.00;100057.13;5075130;28;19927;-86
2022/12/08 08:12:05;;;;;;;;;;;;;;;4.38;100.00;100059.81;5062938;28;19944;-83
2022/12/08 08:14:30;;;;;;;;;;;;;;;4.40;100.00;100062.31;5073070;28;19920;-80
2022/12/08 08:16:55;;;;;;;;;;;;;;;4.30;100.00;100054.44;5061449;28;19956;-82
2022/12/08 08:19:21;;;;;;;;;;;;;;;4.24;100.00;100052.34;5068385;28;19921;-82
2022/12/08 08:21:46;;;;;;;;;;;;;;;4.17;100.00;100051.22;5062296;28;19924;-82
2022/12/08 08:24:12;;;;;;;;;;;;;;;4.24;100.00;100057.59;5060870;28;19967;-87
2022/12/08 08:26:37;;;;;;;;;;;;;;;4.27;100.00;100062.56;5074485;28;20103;-84
2022/12/08 08:29:03;;;;;;;;;;;;;;;4.32;100.00;100054.28;5058799;28;20447;-84
2022/12/08 08:31:29;;;;;;;;;;;;;;;4.26;100.00;100055.66;5067837;28;19920;-82
2022/12/08 08:33:56;;;;;;;;;;;;;;;4.34;100.00;100061.03;5066815;28;19943;-81
2022/12/08 08:36:21;;;;;;;;;;;;;;;4.36;100.00;100058.28;5073106;28;19925;-86
2022/12/08 08:38:47;;;;;;;;;;;;;;;4.36;100.00;100067.00;5058407;28;20457;-83
2022/12/08 08:41:12;;;;;;;;;;;;;;;4.38;100.00;100079.97;5063466;28;19927;-88
2022/12/08 08:43:38;;;;;;;;;;;;;;;4.34;100.00;100087.28;5077442;28;19927;-87
2022/12/08 08:46:04;;;;;;;;;;;;;;;4.24;100.00;100089.06;5077504;28;19966;-85
2022/12/08 08:48:30;;;;;;;;;;;;;;;4.26;100.00;100084.50;5058512;28;19921;-82
2022/12/08 08:50:56;;;;;;;;;;;;;;;4.30;100.00;100099.03;5071731;28;20007;-87
2022/12/08 08:53:22;;;;;;;;;;;;;;;4.46;100.00;100101.97;5064151;28;19920;-84
2022/12/08 08:55:47;;;;;;;;;;;;;;;4.42;100.00;100089.25;5068067;28;19920;-83
2022/12/08 08:58:13;;;;;;;;;;;;;;;4.42;100.00;100097.94;5077837;28;19940;-82
2022/12/08 09:00:38;;;;;;;;;;;;;;;4.45;100.00;100100.31;5075077;28;19942;-81
2022/12/08 09:03:04;;;;;;;;;;;;;;;4.37;100.00;100109.81;5054047;28;19929;-85
2022/12/08 09:05:29;;;;;;;;;;;;;;;4.38;100.00;100099.16;5065638;28;19925;-85
2022/12/08 09:07:54;;;;;;;;;;;;;;;4.34;100.00;100100.38;5072433;28;20005;-84
2022/12/08 09:10:20;;;;;;;;;;;;;;;4.33;100.00;100104.00;5074195;28;19931;-85
2022/12/08 09:12:45;;;;;;;;;;;;;;;4.44;100.00;100096.00;5079335;28;19926;-87
2022/12/08 09:15:11;;;;;;;;;;;;;;;4.47;100.00;100092.31;5071484;28;19921;-86
2022/12/08 09:17:39;;;;;;;;;;;;;;;4.46;100.00;100101.13;5066106;28;20304;-85
2022/12/08 09:20:05;;;;;;;;;;;;;;;4.44;100.00;100092.56;5074295;28;19916;-87
2022/12/08 09:22:32;;;;;;;;;;;;;;;4.45;100.00;100092.44;5065112;28;20007;-84
2022/12/08 09:24:57;;;;;;;;;;;;;;;4.45;100.00;100092.44;5070698;28;19920;-84
2022/12/08 09:27:23;;;;;;;;;;;;;;;4.52;100.00;100093.56;5075753;28;19943;-87
2022/12/08 09:29:51;;;;;;;;;;;;;;;4.46;100.00;100083.59;5074960;28;19933;-84
2022/12/08 09:32:17;;;;;;;;;;;;;;;4.49;100.00;100072.84;5080291;28;19929;-84
2022/12/08 09:34:45;;;;;;;;;;;;;;;4.76;100.00;100085.31;5072407;28;19921;-86
2022/12/08 09:37:10;;;;;;;;;;;;;;;4.87;100.00;100089.63;5070443;28;19924;-85
2022/12/08 09:39:36;;;;;;;;;;;;;;;4.75;100.00;100077.56;5069791;28;19960;-88
2022/12/08 09:42:04;;;;;;;;;;;;;;;4.92;100.00;100079.53;5070280;28;20462;-83
2022/12/08 09:44:45;;;;;;;;;;;;;;;5.04;100.00;100070.53;5048691;28;20234;-87
2022/12/08 09:47:17;;;;;;;;;;;;;;;5.04;100.00;100073.19;5064145;28;19965;-88
2022/12/08 09:49:46;;;;;;;;;;;;;;;5.03;100.00;100077.63;5047554;28;19920;-86
2022/12/08 09:52:20;;;;;;;;;;;;;;;5.06;100.00;100076.50;5071912;28;20060;-91
2022/12/08 09:54:45;;;;;;;;;;;;;;;5.11;100.00;100084.78;5081953;28;19966;-87
2022/12/08 09:57:14;;;;;;;;;;;;;;;5.20;100.00;100089.25;5085011;28;19916;-83
2022/12/08 09:59:41;;;;;;;;;;;;;;;5.24;100.00;100074.84;5073307;28;19925;-85
2022/12/08 10:02:18;;;;;;;;;;;;;;;5.25;100.00;100068.63;5074063;28;19928;-82
2022/12/08 10:04:59;;;;;;;;;;;;;;;5.30;100.00;100074.31;5076440;28;20051;-84
2022/12/08 10:07:54;;;;;;;;;;;;;;;5.27;100.00;100074.56;5169129;22;19931;-86
2022/12/08 10:10:19;;;;;;;;;;;;;;;5.15;100.00;100070.41;5078323;28;20462;-88
2022/12/08 10:12:54;;;;;;;;;;;;;;;5.21;100.00;100073.31;5095256;28;19923;-89
2022/12/08 10:15:33;;;;;;;;;;;;;;;5.19;100.00;100066.56;5094040;28;20031;-89
2022/12/08 10:18:03;;;;;;;;;;;;;;;5.31;100.00;100070.69;5085615;28;19916;-88
2022/12/08 10:20:34;;;;;;;;;;;;;;;5.34;100.00;100059.06;5059876;28;19939;-86
2022/12/08 10:26:10;;;;;;;;;;;;;;;5.61;100.00;100048.66;5103873;28;19928;-88
2022/12/08 10:28:36;;;;;;;;;;;;;;;5.60;100.00;100052.28;5079046;28;19920;-88
2022/12/08 10:31:17;;;;;;;;;;;;;;;5.60;100.00;100034.69;5096797;28;19931;-88
2022/12/08 10:33:46;;;;;;;;;;;;;;;5.68;100.00;100041.84;5091933;28;19991;-89
2022/12/08 10:36:12;;;;;;;;;;;;;;;5.96;100.00;100040.16;5078064;28;19967;-84
2022/12/08 10:38:39;;;;;;;;;;;;;;;6.05;100.00;100036.63;5083946;28;19974;-85
2022/12/08 10:41:10;;;;;;;;;;;;;;;6.06;100.00;100030.41;5073177;28;19977;-87
2022/12/08 10:43:42;;;;;;;;;;;;;;;6.11;100.00;100028.16;5083222;28;19958;-85
2022/12/08 10:46:21;;;;;;;;;;;;;;;6.26;100.00;100031.97;5091770;28;20017;-84
2022/12/08 10:48:52;;;;;;;;;;;;;;;6.20;100.00;100037.81;5080033;28;20362;-85
2022/12/08 10:51:43;;;;;;;;;;;;;;;6.32;100.00;100026.13;5102657;22;19978;-84
2022/12/08 10:54:37;;;;;;;;;;;;;;;6.34;100.00;100024.16;5068008;28;20011;-85
2022/12/08 10:57:02;;;;;;;;;;;;;;;6.35;100.00;100020.56;5061921;28;19920;-84
2022/12/08 10:59:28;;;;;;;;;;;;;;;6.28;100.00;100019.50;5059905;28;19974;-87
2022/12/08 11:01:54;;;;;;;;;;;;;;;6.35;100.00;100012.69;5053983;28;19939;-83
2022/12/08 11:04:21;;;;;;;;;;;;;;;6.27;100.00;100014.38;5052514;28;19921;-87
2022/12/08 11:06:48;;;;;;;;;;;;;;;6.51;100.00;100007.59;5056035;28;19920;-82
2022/12/08 11:09:16;;;;;;;;;;;;;;;6.45;100.00;100005.56;5067186;28;19929;-88
2022/12/08 11:12:17;;;;;;;;;;;;;;;6.67;100.00;99997.22;5064964;28;19947;-84
2022/12/08 11:14:46;;;;;;;;;;;;;;;6.56;100.00;99996.63;4973147;28;19922;-84
2022/12/08 11:17:20;;;;;;;;;;;;;;;6.57;100.00;99993.81;5039510;28;20602;-84
2022/12/08 11:20:21;;;;;;;;;;;;;;;6.70;100.00;99989.00;5076586;28;19927;-84
2022/12/08 11:22:51;;;;;;;;;;;;;;;6.68;100.00;99995.41;5000843;28;19933;-85
2022/12/08 11:25:18;;;;;;;;;;;;;;;6.67;100.00;99994.59;5027353;28;19921;-85
2022/12/08 11:27:45;;;;;;;;;;;;;;;6.51;100.00;99986.53;5054003;28;20459;-84
2022/12/08 11:30:14;;;;;;;;;;;;;;;6.48;100.00;99992.09;5059357;28;19924;-84
2022/12/08 11:32:41;;;;;;;;;;;;;;;6.35;100.00;99996.88;5055171;28;19921;-85
2022/12/08 11:35:08;;;;;;;;;;;;;;;6.29;100.00;100005.38;5056003;28;19984;-85
2022/12/08 11:37:42;;;;;;;;;;;;;;;6.24;100.00;99986.56;5049816;28;19924;-84
2022/12/08 11:40:20;;;;;;;;;;;;;;;6.44;100.00;99992.53;5051097;28;20027;-85
2022/12/08 11:42:49;;;;;;;;;;;;;;;6.69;100.00;99997.88;5050135;28;19955;-85
2022/12/08 11:45:19;;;;;;;;;;;;;;;6.52;100.00;99996.09;5053564;28;19929;-85
2022/12/08 11:47:51;;;;;;;;;;;;;;;6.66;100.00;99990.28;5052373;28;19921;-84
2022/12/08 11:50:25;;;;;;;;;;;;;;;6.66;100.00;99982.38;5058682;28;20019;-84
2022/12/08 11:52:51;;;;;;;;;;;;;;;6.68;100.00;99980.44;5057845;28;20323;-85
2022/12/08 11:55:19;;;;;;;;;;;;;;;6.53;100.00;99978.50;5060435;28;19920;-88
2022/12/08 11:57:44;;;;;;;;;;;;;;;6.65;100.00;99970.22;5060456;28;19928;-87
2022/12/08 12:00:13;;;;;;;;;;;;;;;6.59;100.00;99976.09;5063736;28;19947;-88
2022/12/08 12:02:41;;;;;;;;;;;;;;;6.62;100.00;99974.94;5060527;28;20409;-87
2022/12/08 12:05:15;;;;;;;;;;;;;;;6.69;100.00;99968.13;5056699;28;19928;-88
2022/12/08 12:07:41;;;;;;;;;;;;;;;6.55;100.00;99964.19;5062487;28;20365;-86
2022/12/08 12:10:18;;;;;;;;;;;;;;;6.68;100.00;99964.66;5059464;28;19931;-85
2022/12/08 12:13:03;;;;;;;;;;;;;;;6.76;100.00;99956.81;5058407;28;19921;-85
2022/12/08 12:15:47;;;;;;;;;;;;;;;7.10;100.00;99956.09;5057700;28;19921;-89
2022/12/08 12:18:32;;;;;;;;;;;;;;;7.05;100.00;99950.47;5053799;28;19920;-88
2022/12/08 12:21:01;;;;;;;;;;;;;;;7.23;100.00;99953.88;5070467;28;19929;-88
2022/12/08 12:23:38;;;;;;;;;;;;;;;7.23;100.00;99953.88;5077173;28;19920;-84
2022/12/08 12:26:08;;;;;;;;;;;;;;;7.25;100.00;99952.75;5075979;28;19920;-85
2022/12/08 12:28:51;;;;;;;;;;;;;;;7.24;100.00;99950.25;5076331;28;19920;-85
2022/12/08 12:31:17;;;;;;;;;;;;;;;7.27;100.00;99945.50;5077328;28;19920;-86
2022/12/08 12:33:44;;;;;;;;;;;;;;;7.16;100.00;99939.66;5069722;28;19987;-83
2022/12/08 12:36:11;;;;;;;;;;;;;;;6.99;100.00;99945.81;5071925;28;20011;-84
2022/12/08 12:41:30;;;;;;;;;;;;;;;7.03;100.00;99941.88;5078674;28;19927;-83
2022/12/08 12:44:10;;;;;;;;;;;;;;;7.37;100.00;99944.56;5074680;28;19990;-86
2022/12/08 12:46:38;;;;;;;;;;;;;;;7.19;100.00;99934.09;5057119;28;19921;-83
2022/12/08 12:49:35;;;;;;;;;;;;;;;6.98;100.00;99936.25;5055935;28;19979;-85
2022/12/08 12:52:01;;;;;;;;;;;;;;;6.89;100.00;99924.84;5054987;28;19925;-87
2022/12/08 12:54:28;;;;;;;;;;;;;;;6.87;100.00;99920.66;5055051;28;19921;-87